sensor_id;sensor_type;location;lat;lon;timestamp;P1;durP1;ratioP1;P2;durP2;ratioP2
43620;SDS011;29213;50.770;7.298;2023-12-04T00:01:33;17.63;;;11.25;;
43620;SDS011;29213;50.770;7.298;2023-12-04T00:04:00;17.80;;;11.00;;
43620;SDS011;29213;50.770;7.298;2023-12-04T00:19:54;16.60;;;10.90;;
43620;SDS011;29213;50.770;7.298;2023-12-04T00:22:19;18.33;;;11.52;;
43620;SDS011;29213;50.770;7.298;2023-12-04T00:24:45;17.50;;;10.73;;
43620;SDS011;29213;50.770;7.298;2023-12-04T00:27:10;16.52;;;10.43;;
43620;SDS011;29213;50.770;7.298;2023-12-04T00:29:35;17.73;;;11.52;;
43620;SDS011;29213;50.770;7.298;2023-12-04T00:32:01;17.33;;;11.32;;
43620;SDS011;29213;50.770;7.298;2023-12-04T00:34:26;15.82;;;10.45;;
43620;SDS011;29213;50.770;7.298;2023-12-04T00:36:52;16.48;;;10.85;;
43620;SDS011;29213;50.770;7.298;2023-12-04T00:39:17;17.27;;;10.95;;
43620;SDS011;29213;50.770;7.298;2023-12-04T00:41:42;15.95;;;10.45;;
43620;SDS011;29213;50.770;7.298;2023-12-04T00:44:08;16.73;;;10.30;;
43620;SDS011;29213;50.770;7.298;2023-12-04T00:46:33;17.27;;;10.63;;
43620;SDS011;29213;50.770;7.298;2023-12-04T00:48:59;16.33;;;10.48;;
43620;SDS011;29213;50.770;7.298;2023-12-04T00:51:24;18.02;;;10.77;;
43620;SDS011;29213;50.770;7.298;2023-12-04T00:53:50;15.60;;;10.27;;
43620;SDS011;29213;50.770;7.298;2023-12-04T00:56:16;17.45;;;11.50;;
43620;SDS011;29213;50.770;7.298;2023-12-04T00:58:41;16.65;;;10.70;;
43620;SDS011;29213;50.770;7.298;2023-12-04T01:01:06;17.75;;;10.65;;
43620;SDS011;29213;50.770;7.298;2023-12-04T01:03:32;16.38;;;10.13;;
43620;SDS011;29213;50.770;7.298;2023-12-04T01:05:58;16.33;;;10.48;;
43620;SDS011;29213;50.770;7.298;2023-12-04T01:08:24;16.45;;;10.38;;
43620;SDS011;29213;50.770;7.298;2023-12-04T01:10:49;16.25;;;10.77;;
43620;SDS011;29213;50.770;7.298;2023-12-04T01:13:15;15.32;;;10.23;;
43620;SDS011;29213;50.770;7.298;2023-12-04T01:15:40;15.57;;;10.70;;
43620;SDS011;29213;50.770;7.298;2023-12-04T01:18:07;16.08;;;10.20;;
43620;SDS011;29213;50.770;7.298;2023-12-04T01:20:33;13.45;;;9.65;;
43620;SDS011;29213;50.770;7.298;2023-12-04T01:22:59;16.08;;;10.38;;
43620;SDS011;29213;50.770;7.298;2023-12-04T01:25:25;15.10;;;10.38;;
43620;SDS011;29213;50.770;7.298;2023-12-04T01:27:50;18.15;;;10.88;;
43620;SDS011;29213;50.770;7.298;2023-12-04T01:30:16;15.48;;;10.30;;
43620;SDS011;29213;50.770;7.298;2023-12-04T01:32:41;17.77;;;11.13;;
43620;SDS011;29213;50.770;7.298;2023-12-04T01:35:07;17.52;;;11.32;;
43620;SDS011;29213;50.770;7.298;2023-12-04T01:37:32;16.23;;;10.68;;
43620;SDS011;29213;50.770;7.298;2023-12-04T01:39:58;16.08;;;10.50;;
43620;SDS011;29213;50.770;7.298;2023-12-04T01:42:23;16.50;;;10.75;;
43620;SDS011;29213;50.770;7.298;2023-12-04T01:44:49;16.15;;;10.65;;
43620;SDS011;29213;50.770;7.298;2023-12-04T01:47:14;18.67;;;11.20;;
43620;SDS011;29213;50.770;7.298;2023-12-04T01:49:39;16.30;;;10.77;;
43620;SDS011;29213;50.770;7.298;2023-12-04T01:52:05;18.13;;;11.43;;
43620;SDS011;29213;50.770;7.298;2023-12-04T01:54:31;17.42;;;10.95;;
43620;SDS011;29213;50.770;7.298;2023-12-04T01:56:57;16.05;;;10.98;;
43620;SDS011;29213;50.770;7.298;2023-12-04T01:59:23;17.13;;;11.25;;
43620;SDS011;29213;50.770;7.298;2023-12-04T02:01:51;16.55;;;11.02;;
43620;SDS011;29213;50.770;7.298;2023-12-04T02:04:17;18.77;;;11.98;;
43620;SDS011;29213;50.770;7.298;2023-12-04T02:06:43;17.60;;;11.57;;
43620;SDS011;29213;50.770;7.298;2023-12-04T02:09:09;16.48;;;10.70;;
43620;SDS011;29213;50.770;7.298;2023-12-04T02:11:38;17.63;;;10.93;;
43620;SDS011;29213;50.770;7.298;2023-12-04T02:14:05;17.88;;;11.52;;
43620;SDS011;29213;50.770;7.298;2023-12-04T02:16:31;16.55;;;10.75;;
43620;SDS011;29213;50.770;7.298;2023-12-04T02:19:00;17.33;;;10.43;;
43620;SDS011;29213;50.770;7.298;2023-12-04T02:21:26;17.75;;;11.10;;
43620;SDS011;29213;50.770;7.298;2023-12-04T02:23:54;18.95;;;11.25;;
43620;SDS011;29213;50.770;7.298;2023-12-04T02:26:22;18.10;;;11.20;;
43620;SDS011;29213;50.770;7.298;2023-12-04T02:28:54;15.98;;;10.60;;
43620;SDS011;29213;50.770;7.298;2023-12-04T02:31:23;17.67;;;10.80;;
43620;SDS011;29213;50.770;7.298;2023-12-04T02:33:51;17.77;;;10.90;;
43620;SDS011;29213;50.770;7.298;2023-12-04T02:36:17;17.33;;;11.07;;
43620;SDS011;29213;50.770;7.298;2023-12-04T02:38:45;16.73;;;10.85;;
43620;SDS011;29213;50.770;7.298;2023-12-04T02:41:11;18.10;;;11.68;;
43620;SDS011;29213;50.770;7.298;2023-12-04T02:43:36;18.42;;;11.48;;
43620;SDS011;29213;50.770;7.298;2023-12-04T02:46:02;19.30;;;11.68;;
43620;SDS011;29213;50.770;7.298;2023-12-04T02:48:28;20.35;;;11.95;;
43620;SDS011;29213;50.770;7.298;2023-12-04T02:50:53;17.48;;;12.13;;
43620;SDS011;29213;50.770;7.298;2023-12-04T02:53:18;19.40;;;11.90;;
43620;SDS011;29213;50.770;7.298;2023-12-04T02:55:44;19.42;;;12.32;;
43620;SDS011;29213;50.770;7.298;2023-12-04T02:58:09;18.23;;;11.93;;
43620;SDS011;29213;50.770;7.298;2023-12-04T03:00:35;18.20;;;11.93;;
43620;SDS011;29213;50.770;7.298;2023-12-04T03:03:00;19.15;;;12.38;;
43620;SDS011;29213;50.770;7.298;2023-12-04T03:05:25;17.60;;;12.02;;
43620;SDS011;29213;50.770;7.298;2023-12-04T03:07:51;19.27;;;12.45;;
43620;SDS011;29213;50.770;7.298;2023-12-04T03:10:16;20.38;;;12.60;;
43620;SDS011;29213;50.770;7.298;2023-12-04T03:12:41;19.92;;;12.77;;
43620;SDS011;29213;50.770;7.298;2023-12-04T03:15:07;19.02;;;11.77;;
43620;SDS011;29213;50.770;7.298;2023-12-04T03:17:33;20.20;;;12.25;;
43620;SDS011;29213;50.770;7.298;2023-12-04T03:19:58;18.40;;;12.25;;
43620;SDS011;29213;50.770;7.298;2023-12-04T03:22:23;18.48;;;12.82;;
43620;SDS011;29213;50.770;7.298;2023-12-04T03:24:49;18.95;;;12.77;;
43620;SDS011;29213;50.770;7.298;2023-12-04T03:27:14;19.42;;;12.70;;
43620;SDS011;29213;50.770;7.298;2023-12-04T03:29:40;22.02;;;12.77;;
43620;SDS011;29213;50.770;7.298;2023-12-04T03:32:05;19.48;;;12.73;;
43620;SDS011;29213;50.770;7.298;2023-12-04T03:34:31;22.17;;;13.00;;
43620;SDS011;29213;50.770;7.298;2023-12-04T03:36:56;20.73;;;13.32;;
43620;SDS011;29213;50.770;7.298;2023-12-04T03:39:21;21.17;;;13.10;;
43620;SDS011;29213;50.770;7.298;2023-12-04T03:41:47;23.30;;;12.63;;
43620;SDS011;29213;50.770;7.298;2023-12-04T03:44:13;21.20;;;13.20;;
43620;SDS011;29213;50.770;7.298;2023-12-04T03:46:38;21.63;;;13.10;;
43620;SDS011;29213;50.770;7.298;2023-12-04T03:49:04;22.50;;;12.73;;
43620;SDS011;29213;50.770;7.298;2023-12-04T03:51:30;18.77;;;12.23;;
43620;SDS011;29213;50.770;7.298;2023-12-04T03:53:56;21.30;;;12.90;;
43620;SDS011;29213;50.770;7.298;2023-12-04T03:56:21;21.15;;;13.25;;
43620;SDS011;29213;50.770;7.298;2023-12-04T03:58:46;19.33;;;12.65;;
43620;SDS011;29213;50.770;7.298;2023-12-04T04:01:12;20.40;;;13.00;;
43620;SDS011;29213;50.770;7.298;2023-12-04T04:03:37;18.75;;;12.60;;
43620;SDS011;29213;50.770;7.298;2023-12-04T04:06:03;18.05;;;12.00;;
43620;SDS011;29213;50.770;7.298;2023-12-04T04:08:29;20.50;;;12.68;;
43620;SDS011;29213;50.770;7.298;2023-12-04T04:10:54;21.67;;;12.98;;
43620;SDS011;29213;50.770;7.298;2023-12-04T04:13:20;19.42;;;12.32;;
43620;SDS011;29213;50.770;7.298;2023-12-04T04:15:45;21.35;;;12.80;;
43620;SDS011;29213;50.770;7.298;2023-12-04T04:18:11;20.40;;;13.05;;
43620;SDS011;29213;50.770;7.298;2023-12-04T04:20:36;20.15;;;12.85;;
43620;SDS011;29213;50.770;7.298;2023-12-04T04:23:02;20.73;;;13.45;;
43620;SDS011;29213;50.770;7.298;2023-12-04T04:25:27;19.80;;;12.75;;
43620;SDS011;29213;50.770;7.298;2023-12-04T04:27:52;21.40;;;13.82;;
43620;SDS011;29213;50.770;7.298;2023-12-04T04:30:18;22.70;;;13.82;;
43620;SDS011;29213;50.770;7.298;2023-12-04T04:32:43;19.08;;;12.60;;
43620;SDS011;29213;50.770;7.298;2023-12-04T04:35:08;19.98;;;13.52;;
43620;SDS011;29213;50.770;7.298;2023-12-04T04:37:34;21.45;;;13.40;;
43620;SDS011;29213;50.770;7.298;2023-12-04T04:40:00;21.17;;;14.20;;
43620;SDS011;29213;50.770;7.298;2023-12-04T04:42:26;23.15;;;14.20;;
43620;SDS011;29213;50.770;7.298;2023-12-04T04:44:51;20.67;;;13.88;;
43620;SDS011;29213;50.770;7.298;2023-12-04T04:47:17;22.00;;;14.30;;
43620;SDS011;29213;50.770;7.298;2023-12-04T04:49:42;23.15;;;14.38;;
43620;SDS011;29213;50.770;7.298;2023-12-04T04:52:07;20.80;;;13.57;;
43620;SDS011;29213;50.770;7.298;2023-12-04T04:54:33;22.20;;;14.40;;
43620;SDS011;29213;50.770;7.298;2023-12-04T04:56:58;19.73;;;13.80;;
43620;SDS011;29213;50.770;7.298;2023-12-04T04:59:24;22.95;;;14.23;;
43620;SDS011;29213;50.770;7.298;2023-12-04T05:01:49;20.23;;;13.65;;
43620;SDS011;29213;50.770;7.298;2023-12-04T05:04:14;22.10;;;13.80;;
43620;SDS011;29213;50.770;7.298;2023-12-04T05:06:40;23.55;;;14.90;;
43620;SDS011;29213;50.770;7.298;2023-12-04T05:09:05;21.98;;;14.05;;
43620;SDS011;29213;50.770;7.298;2023-12-04T05:11:31;19.42;;;13.38;;
43620;SDS011;29213;50.770;7.298;2023-12-04T05:13:56;22.92;;;14.85;;
43620;SDS011;29213;50.770;7.298;2023-12-04T05:16:21;21.90;;;14.27;;
43620;SDS011;29213;50.770;7.298;2023-12-04T05:18:47;24.15;;;14.35;;
43620;SDS011;29213;50.770;7.298;2023-12-04T05:21:12;20.27;;;13.68;;
43620;SDS011;29213;50.770;7.298;2023-12-04T05:23:38;19.33;;;13.25;;
43620;SDS011;29213;50.770;7.298;2023-12-04T05:26:04;20.60;;;14.07;;
43620;SDS011;29213;50.770;7.298;2023-12-04T05:28:30;20.58;;;13.88;;
43620;SDS011;29213;50.770;7.298;2023-12-04T05:30:55;21.63;;;13.98;;
43620;SDS011;29213;50.770;7.298;2023-12-04T05:33:21;20.55;;;13.63;;
43620;SDS011;29213;50.770;7.298;2023-12-04T05:35:47;22.17;;;13.95;;
43620;SDS011;29213;50.770;7.298;2023-12-04T05:38:13;21.08;;;14.13;;
43620;SDS011;29213;50.770;7.298;2023-12-04T05:40:39;22.17;;;14.90;;
43620;SDS011;29213;50.770;7.298;2023-12-04T05:43:04;17.40;;;12.27;;
43620;SDS011;29213;50.770;7.298;2023-12-04T05:45:29;19.38;;;12.68;;
43620;SDS011;29213;50.770;7.298;2023-12-04T05:47:55;19.58;;;12.95;;
43620;SDS011;29213;50.770;7.298;2023-12-04T05:50:21;20.75;;;13.45;;
43620;SDS011;29213;50.770;7.298;2023-12-04T05:52:46;21.17;;;12.90;;
43620;SDS011;29213;50.770;7.298;2023-12-04T05:55:11;21.75;;;14.07;;
43620;SDS011;29213;50.770;7.298;2023-12-04T05:57:40;21.40;;;13.68;;
43620;SDS011;29213;50.770;7.298;2023-12-04T06:00:06;21.73;;;14.13;;
43620;SDS011;29213;50.770;7.298;2023-12-04T06:02:38;19.38;;;13.73;;
43620;SDS011;29213;50.770;7.298;2023-12-04T06:05:04;20.02;;;13.27;;
43620;SDS011;29213;50.770;7.298;2023-12-04T06:07:30;20.20;;;13.35;;
43620;SDS011;29213;50.770;7.298;2023-12-04T06:09:56;22.20;;;13.77;;
43620;SDS011;29213;50.770;7.298;2023-12-04T06:12:21;18.90;;;13.23;;
43620;SDS011;29213;50.770;7.298;2023-12-04T06:14:46;19.60;;;12.88;;
43620;SDS011;29213;50.770;7.298;2023-12-04T06:17:12;19.52;;;13.48;;
43620;SDS011;29213;50.770;7.298;2023-12-04T06:19:37;20.92;;;13.88;;
43620;SDS011;29213;50.770;7.298;2023-12-04T06:22:03;20.60;;;14.25;;
43620;SDS011;29213;50.770;7.298;2023-12-04T06:24:28;20.45;;;13.45;;
43620;SDS011;29213;50.770;7.298;2023-12-04T06:26:55;20.50;;;13.23;;
43620;SDS011;29213;50.770;7.298;2023-12-04T06:29:21;19.88;;;13.98;;
43620;SDS011;29213;50.770;7.298;2023-12-04T06:31:47;20.80;;;13.05;;
43620;SDS011;29213;50.770;7.298;2023-12-04T06:34:12;22.52;;;13.85;;
43620;SDS011;29213;50.770;7.298;2023-12-04T06:36:38;19.48;;;13.02;;
43620;SDS011;29213;50.770;7.298;2023-12-04T06:39:14;21.33;;;14.07;;
43620;SDS011;29213;50.770;7.298;2023-12-04T06:41:42;20.45;;;13.00;;
43620;SDS011;29213;50.770;7.298;2023-12-04T06:44:08;21.15;;;13.52;;
43620;SDS011;29213;50.770;7.298;2023-12-04T06:46:36;18.75;;;12.73;;
43620;SDS011;29213;50.770;7.298;2023-12-04T06:49:03;20.05;;;13.00;;
43620;SDS011;29213;50.770;7.298;2023-12-04T06:51:30;21.95;;;13.85;;
43620;SDS011;29213;50.770;7.298;2023-12-04T06:53:55;20.70;;;14.00;;
43620;SDS011;29213;50.770;7.298;2023-12-04T06:56:21;20.05;;;13.65;;
43620;SDS011;29213;50.770;7.298;2023-12-04T06:58:46;20.05;;;12.68;;
43620;SDS011;29213;50.770;7.298;2023-12-04T07:01:12;20.35;;;13.05;;
43620;SDS011;29213;50.770;7.298;2023-12-04T07:03:37;20.13;;;13.05;;
43620;SDS011;29213;50.770;7.298;2023-12-04T07:06:03;17.98;;;12.20;;
43620;SDS011;29213;50.770;7.298;2023-12-04T07:08:29;19.85;;;12.68;;
43620;SDS011;29213;50.770;7.298;2023-12-04T07:10:54;20.08;;;12.63;;
43620;SDS011;29213;50.770;7.298;2023-12-04T07:13:19;19.25;;;12.27;;
43620;SDS011;29213;50.770;7.298;2023-12-04T07:15:45;20.02;;;12.65;;
43620;SDS011;29213;50.770;7.298;2023-12-04T07:18:10;18.52;;;12.13;;
43620;SDS011;29213;50.770;7.298;2023-12-04T07:20:36;19.98;;;13.13;;
43620;SDS011;29213;50.770;7.298;2023-12-04T07:23:01;19.20;;;12.43;;
43620;SDS011;29213;50.770;7.298;2023-12-04T07:25:27;18.20;;;12.50;;
43620;SDS011;29213;50.770;7.298;2023-12-04T07:27:52;22.58;;;12.95;;
43620;SDS011;29213;50.770;7.298;2023-12-04T07:30:18;18.23;;;12.02;;
43620;SDS011;29213;50.770;7.298;2023-12-04T07:32:43;22.85;;;11.88;;
43620;SDS011;29213;50.770;7.298;2023-12-04T07:35:08;19.02;;;12.40;;
43620;SDS011;29213;50.770;7.298;2023-12-04T07:37:34;19.98;;;12.05;;
43620;SDS011;29213;50.770;7.298;2023-12-04T07:39:59;19.20;;;11.80;;
43620;SDS011;29213;50.770;7.298;2023-12-04T07:42:25;18.00;;;11.93;;
43620;SDS011;29213;50.770;7.298;2023-12-04T07:44:50;17.63;;;11.73;;
43620;SDS011;29213;50.770;7.298;2023-12-04T07:47:16;18.70;;;12.35;;
43620;SDS011;29213;50.770;7.298;2023-12-04T07:49:41;20.00;;;12.93;;
43620;SDS011;29213;50.770;7.298;2023-12-04T07:52:07;20.20;;;12.43;;
43620;SDS011;29213;50.770;7.298;2023-12-04T07:54:33;19.83;;;12.35;;
43620;SDS011;29213;50.770;7.298;2023-12-04T07:56:59;19.55;;;12.90;;
43620;SDS011;29213;50.770;7.298;2023-12-04T07:59:24;20.10;;;12.73;;
43620;SDS011;29213;50.770;7.298;2023-12-04T08:01:51;19.58;;;12.73;;
43620;SDS011;29213;50.770;7.298;2023-12-04T08:04:22;18.85;;;12.50;;
43620;SDS011;29213;50.770;7.298;2023-12-04T08:06:53;20.40;;;12.45;;
43620;SDS011;29213;50.770;7.298;2023-12-04T08:09:19;18.13;;;11.88;;
43620;SDS011;29213;50.770;7.298;2023-12-04T08:11:44;19.42;;;12.02;;
43620;SDS011;29213;50.770;7.298;2023-12-04T08:14:10;16.92;;;11.98;;
43620;SDS011;29213;50.770;7.298;2023-12-04T08:16:36;19.08;;;12.20;;
43620;SDS011;29213;50.770;7.298;2023-12-04T08:19:01;19.83;;;12.60;;
43620;SDS011;29213;50.770;7.298;2023-12-04T08:21:26;19.38;;;12.50;;
43620;SDS011;29213;50.770;7.298;2023-12-04T08:23:52;19.48;;;12.07;;
43620;SDS011;29213;50.770;7.298;2023-12-04T08:26:21;18.55;;;12.10;;
43620;SDS011;29213;50.770;7.298;2023-12-04T08:28:47;18.08;;;11.40;;
43620;SDS011;29213;50.770;7.298;2023-12-04T08:31:13;17.10;;;11.75;;
43620;SDS011;29213;50.770;7.298;2023-12-04T08:33:38;18.27;;;11.65;;
43620;SDS011;29213;50.770;7.298;2023-12-04T08:36:04;17.48;;;11.13;;
43620;SDS011;29213;50.770;7.298;2023-12-04T08:38:30;17.00;;;11.20;;
43620;SDS011;29213;50.770;7.298;2023-12-04T08:40:55;17.20;;;11.32;;
43620;SDS011;29213;50.770;7.298;2023-12-04T08:43:20;18.38;;;11.35;;
43620;SDS011;29213;50.770;7.298;2023-12-04T08:45:46;17.17;;;11.00;;
43620;SDS011;29213;50.770;7.298;2023-12-04T08:48:11;18.05;;;10.95;;
43620;SDS011;29213;50.770;7.298;2023-12-04T08:50:37;17.40;;;11.18;;
43620;SDS011;29213;50.770;7.298;2023-12-04T08:53:03;17.10;;;11.02;;
43620;SDS011;29213;50.770;7.298;2023-12-04T08:55:29;16.88;;;10.90;;
43620;SDS011;29213;50.770;7.298;2023-12-04T08:57:55;17.63;;;11.05;;
43620;SDS011;29213;50.770;7.298;2023-12-04T09:00:20;17.15;;;10.77;;
43620;SDS011;29213;50.770;7.298;2023-12-04T09:02:46;18.30;;;11.20;;
43620;SDS011;29213;50.770;7.298;2023-12-04T09:05:12;18.00;;;11.77;;
43620;SDS011;29213;50.770;7.298;2023-12-04T09:07:38;19.23;;;11.40;;
43620;SDS011;29213;50.770;7.298;2023-12-04T09:10:03;16.08;;;10.57;;
43620;SDS011;29213;50.770;7.298;2023-12-04T09:12:29;18.13;;;11.80;;
43620;SDS011;29213;50.770;7.298;2023-12-04T09:14:54;17.80;;;11.38;;
43620;SDS011;29213;50.770;7.298;2023-12-04T09:17:20;18.40;;;12.00;;
43620;SDS011;29213;50.770;7.298;2023-12-04T09:19:45;18.80;;;11.18;;
43620;SDS011;29213;50.770;7.298;2023-12-04T09:22:11;17.58;;;11.52;;
43620;SDS011;29213;50.770;7.298;2023-12-04T09:24:36;17.15;;;11.35;;
43620;SDS011;29213;50.770;7.298;2023-12-04T09:27:02;19.33;;;10.75;;
43620;SDS011;29213;50.770;7.298;2023-12-04T09:29:27;15.35;;;9.95;;
43620;SDS011;29213;50.770;7.298;2023-12-04T09:31:53;17.08;;;10.80;;
43620;SDS011;29213;50.770;7.298;2023-12-04T09:34:18;15.32;;;10.73;;
43620;SDS011;29213;50.770;7.298;2023-12-04T09:36:45;17.42;;;11.02;;
43620;SDS011;29213;50.770;7.298;2023-12-04T09:39:13;15.50;;;10.40;;
43620;SDS011;29213;50.770;7.298;2023-12-04T09:41:39;16.00;;;10.48;;
43620;SDS011;29213;50.770;7.298;2023-12-04T09:44:07;16.65;;;10.55;;
43620;SDS011;29213;50.770;7.298;2023-12-04T09:46:33;15.70;;;10.13;;
43620;SDS011;29213;50.770;7.298;2023-12-04T09:48:59;16.20;;;10.23;;
43620;SDS011;29213;50.770;7.298;2023-12-04T09:51:25;16.55;;;10.48;;
43620;SDS011;29213;50.770;7.298;2023-12-04T09:53:52;17.50;;;10.30;;
43620;SDS011;29213;50.770;7.298;2023-12-04T09:56:18;15.90;;;10.75;;
43620;SDS011;29213;50.770;7.298;2023-12-04T09:58:45;18.35;;;11.30;;
43620;SDS011;29213;50.770;7.298;2023-12-04T10:01:16;17.35;;;11.15;;
43620;SDS011;29213;50.770;7.298;2023-12-04T10:03:42;17.73;;;10.98;;
43620;SDS011;29213;50.770;7.298;2023-12-04T10:06:08;16.60;;;10.38;;
43620;SDS011;29213;50.770;7.298;2023-12-04T10:08:33;13.52;;;9.55;;
43620;SDS011;29213;50.770;7.298;2023-12-04T10:10:59;15.73;;;10.02;;
43620;SDS011;29213;50.770;7.298;2023-12-04T10:13:26;12.45;;;9.18;;
43620;SDS011;29213;50.770;7.298;2023-12-04T10:15:52;15.30;;;10.00;;
43620;SDS011;29213;50.770;7.298;2023-12-04T10:18:24;16.80;;;10.63;;
43620;SDS011;29213;50.770;7.298;2023-12-04T10:20:51;16.15;;;9.45;;
43620;SDS011;29213;50.770;7.298;2023-12-04T10:23:18;18.98;;;9.88;;
43620;SDS011;29213;50.770;7.298;2023-12-04T10:25:44;15.77;;;9.98;;
43620;SDS011;29213;50.770;7.298;2023-12-04T10:28:10;14.45;;;9.07;;
43620;SDS011;29213;50.770;7.298;2023-12-04T10:30:36;14.75;;;9.63;;
43620;SDS011;29213;50.770;7.298;2023-12-04T10:33:02;15.90;;;10.23;;
43620;SDS011;29213;50.770;7.298;2023-12-04T10:35:30;13.82;;;9.27;;
43620;SDS011;29213;50.770;7.298;2023-12-04T10:37:57;14.85;;;9.60;;
43620;SDS011;29213;50.770;7.298;2023-12-04T10:40:27;15.23;;;9.93;;
43620;SDS011;29213;50.770;7.298;2023-12-04T10:45:58;14.25;;;9.85;;
43620;SDS011;29213;50.770;7.298;2023-12-04T10:48:23;14.73;;;10.10;;
43620;SDS011;29213;50.770;7.298;2023-12-04T10:50:49;16.25;;;9.98;;
43620;SDS011;29213;50.770;7.298;2023-12-04T10:53:15;13.82;;;9.38;;
43620;SDS011;29213;50.770;7.298;2023-12-04T10:55:41;16.58;;;10.45;;
43620;SDS011;29213;50.770;7.298;2023-12-04T10:58:10;14.23;;;9.27;;
43620;SDS011;29213;50.770;7.298;2023-12-04T11:00:44;13.52;;;9.07;;
43620;SDS011;29213;50.770;7.298;2023-12-04T11:05:50;14.20;;;8.98;;
43620;SDS011;29213;50.770;7.298;2023-12-04T11:08:21;14.45;;;9.57;;
43620;SDS011;29213;50.770;7.298;2023-12-04T11:13:34;12.90;;;8.85;;
43620;SDS011;29213;50.770;7.298;2023-12-04T11:16:11;14.65;;;9.32;;
43620;SDS011;29213;50.770;7.298;2023-12-04T11:18:51;14.43;;;9.52;;
43620;SDS011;29213;50.770;7.298;2023-12-04T11:21:29;16.80;;;9.85;;
43620;SDS011;29213;50.770;7.298;2023-12-04T11:23:57;15.43;;;10.05;;
43620;SDS011;29213;50.770;7.298;2023-12-04T11:26:23;15.80;;;9.65;;
43620;SDS011;29213;50.770;7.298;2023-12-04T11:28:50;16.48;;;9.82;;
43620;SDS011;29213;50.770;7.298;2023-12-04T11:31:16;16.77;;;10.02;;
43620;SDS011;29213;50.770;7.298;2023-12-04T11:33:42;17.08;;;10.07;;
43620;SDS011;29213;50.770;7.298;2023-12-04T11:36:11;15.32;;;9.27;;
43620;SDS011;29213;50.770;7.298;2023-12-04T11:38:38;15.13;;;9.55;;
43620;SDS011;29213;50.770;7.298;2023-12-04T11:41:21;14.20;;;9.57;;
43620;SDS011;29213;50.770;7.298;2023-12-04T11:43:47;16.58;;;10.45;;
43620;SDS011;29213;50.770;7.298;2023-12-04T11:46:13;15.18;;;9.23;;
43620;SDS011;29213;50.770;7.298;2023-12-04T11:48:50;14.18;;;9.15;;
43620;SDS011;29213;50.770;7.298;2023-12-04T11:54:14;15.27;;;9.80;;
43620;SDS011;29213;50.770;7.298;2023-12-04T11:56:40;13.38;;;9.05;;
43620;SDS011;29213;50.770;7.298;2023-12-04T11:59:21;15.45;;;9.77;;
43620;SDS011;29213;50.770;7.298;2023-12-04T12:01:46;16.15;;;10.27;;
43620;SDS011;29213;50.770;7.298;2023-12-04T12:04:16;15.52;;;10.15;;
43620;SDS011;29213;50.770;7.298;2023-12-04T12:06:43;14.85;;;9.68;;
43620;SDS011;29213;50.770;7.298;2023-12-04T12:09:09;17.00;;;10.30;;
43620;SDS011;29213;50.770;7.298;2023-12-04T12:11:35;15.80;;;10.77;;
43620;SDS011;29213;50.770;7.298;2023-12-04T12:14:01;15.38;;;10.43;;
43620;SDS011;29213;50.770;7.298;2023-12-04T12:16:26;16.48;;;10.45;;
43620;SDS011;29213;50.770;7.298;2023-12-04T12:18:52;15.55;;;10.02;;
43620;SDS011;29213;50.770;7.298;2023-12-04T12:21:18;15.30;;;10.38;;
43620;SDS011;29213;50.770;7.298;2023-12-04T12:23:44;15.90;;;10.32;;
43620;SDS011;29213;50.770;7.298;2023-12-04T12:26:09;14.63;;;10.43;;
43620;SDS011;29213;50.770;7.298;2023-12-04T12:28:35;16.60;;;10.77;;
43620;SDS011;29213;50.770;7.298;2023-12-04T12:31:02;15.73;;;10.70;;
43620;SDS011;29213;50.770;7.298;2023-12-04T12:33:28;16.67;;;10.15;;
43620;SDS011;29213;50.770;7.298;2023-12-04T12:35:55;15.25;;;9.88;;
43620;SDS011;29213;50.770;7.298;2023-12-04T12:38:20;16.70;;;10.35;;
43620;SDS011;29213;50.770;7.298;2023-12-04T12:40:46;15.70;;;10.57;;
43620;SDS011;29213;50.770;7.298;2023-12-04T12:43:11;14.85;;;9.88;;
43620;SDS011;29213;50.770;7.298;2023-12-04T12:45:43;18.38;;;10.43;;
43620;SDS011;29213;50.770;7.298;2023-12-04T12:48:12;16.02;;;10.43;;
43620;SDS011;29213;50.770;7.298;2023-12-04T12:50:38;15.27;;;9.70;;
43620;SDS011;29213;50.770;7.298;2023-12-04T12:53:04;19.08;;;11.27;;
43620;SDS011;29213;50.770;7.298;2023-12-04T12:55:29;17.27;;;10.93;;
43620;SDS011;29213;50.770;7.298;2023-12-04T12:57:55;15.63;;;9.90;;
43620;SDS011;29213;50.770;7.298;2023-12-04T13:00:21;17.02;;;11.00;;
43620;SDS011;29213;50.770;7.298;2023-12-04T13:02:48;15.93;;;10.40;;
43620;SDS011;29213;50.770;7.298;2023-12-04T13:05:13;18.33;;;10.82;;
43620;SDS011;29213;50.770;7.298;2023-12-04T13:07:39;19.02;;;11.10;;
43620;SDS011;29213;50.770;7.298;2023-12-04T13:10:06;15.75;;;10.23;;
43620;SDS011;29213;50.770;7.298;2023-12-04T13:12:33;16.23;;;10.23;;
43620;SDS011;29213;50.770;7.298;2023-12-04T13:14:59;17.55;;;10.90;;
43620;SDS011;29213;50.770;7.298;2023-12-04T13:17:24;16.20;;;10.27;;
43620;SDS011;29213;50.770;7.298;2023-12-04T13:19:50;16.55;;;10.43;;
43620;SDS011;29213;50.770;7.298;2023-12-04T13:22:15;15.35;;;10.18;;
43620;SDS011;29213;50.770;7.298;2023-12-04T13:24:40;18.40;;;10.90;;
43620;SDS011;29213;50.770;7.298;2023-12-04T13:27:06;15.75;;;10.35;;
43620;SDS011;29213;50.770;7.298;2023-12-04T13:29:31;18.38;;;11.15;;
43620;SDS011;29213;50.770;7.298;2023-12-04T13:31:57;16.10;;;10.75;;
43620;SDS011;29213;50.770;7.298;2023-12-04T13:34:24;15.13;;;10.20;;
43620;SDS011;29213;50.770;7.298;2023-12-04T13:36:49;17.63;;;10.73;;
43620;SDS011;29213;50.770;7.298;2023-12-04T13:39:15;16.02;;;10.00;;
43620;SDS011;29213;50.770;7.298;2023-12-04T13:41:52;15.38;;;9.85;;
43620;SDS011;29213;50.770;7.298;2023-12-04T13:44:36;17.05;;;10.55;;
43620;SDS011;29213;50.770;7.298;2023-12-04T13:47:02;15.27;;;10.02;;
43620;SDS011;29213;50.770;7.298;2023-12-04T13:49:28;13.05;;;8.90;;
43620;SDS011;29213;50.770;7.298;2023-12-04T13:51:53;13.82;;;8.88;;
43620;SDS011;29213;50.770;7.298;2023-12-04T13:54:20;14.95;;;9.55;;
43620;SDS011;29213;50.770;7.298;2023-12-04T13:56:51;14.55;;;9.27;;
43620;SDS011;29213;50.770;7.298;2023-12-04T13:59:20;13.30;;;8.82;;
43620;SDS011;29213;50.770;7.298;2023-12-04T14:01:47;12.65;;;8.65;;
43620;SDS011;29213;50.770;7.298;2023-12-04T14:04:15;13.20;;;9.02;;
43620;SDS011;29213;50.770;7.298;2023-12-04T14:06:41;13.60;;;9.15;;
43620;SDS011;29213;50.770;7.298;2023-12-04T14:09:06;14.07;;;8.65;;
43620;SDS011;29213;50.770;7.298;2023-12-04T14:11:39;16.60;;;10.07;;
43620;SDS011;29213;50.770;7.298;2023-12-04T14:14:05;13.40;;;8.40;;
43620;SDS011;29213;50.770;7.298;2023-12-04T14:16:30;13.50;;;9.02;;
43620;SDS011;29213;50.770;7.298;2023-12-04T14:18:56;11.80;;;8.18;;
43620;SDS011;29213;50.770;7.298;2023-12-04T14:21:22;12.75;;;8.10;;
43620;SDS011;29213;50.770;7.298;2023-12-04T14:23:47;11.82;;;7.80;;
43620;SDS011;29213;50.770;7.298;2023-12-04T14:26:13;11.52;;;8.00;;
43620;SDS011;29213;50.770;7.298;2023-12-04T14:28:38;12.73;;;8.45;;
43620;SDS011;29213;50.770;7.298;2023-12-04T14:31:05;10.60;;;7.80;;
43620;SDS011;29213;50.770;7.298;2023-12-04T14:33:32;12.85;;;7.90;;
43620;SDS011;29213;50.770;7.298;2023-12-04T14:35:57;14.23;;;8.15;;
43620;SDS011;29213;50.770;7.298;2023-12-04T14:38:23;11.57;;;7.95;;
43620;SDS011;29213;50.770;7.298;2023-12-04T14:40:49;11.95;;;8.10;;
43620;SDS011;29213;50.770;7.298;2023-12-04T14:43:14;12.05;;;8.02;;